sensor_id;sensor_type;location;lat;lon;timestamp;pressure;altitude;pressure_sealevel;temperature;humidity
54936;BME280;40838;50.676;7.838;2024-01-30T00:00:18;99544.47;;;8.63;100.00
54936;BME280;40838;50.676;7.838;2024-01-30T00:02:45;99539.47;;;8.35;100.00
54936;BME280;40838;50.676;7.838;2024-01-30T00:05:12;99537.06;;;8.92;100.00
54936;BME280;40838;50.676;7.838;2024-01-30T00:07:41;99538.09;;;8.13;100.00
54936;BME280;40838;50.676;7.838;2024-01-30T00:10:08;99536.88;;;8.02;100.00
54936;BME280;40838;50.676;7.838;2024-01-30T00:12:36;99539.25;;;8.50;100.00
54936;BME280;40838;50.676;7.838;2024-01-30T00:15:03;99537.09;;;7.81;100.00
54936;BME280;40838;50.676;7.838;2024-01-30T00:17:33;99533.84;;;7.79;100.00
54936;BME280;40838;50.676;7.838;2024-01-30T00:20:01;99525.09;;;8.05;100.00
54936;BME280;40838;50.676;7.838;2024-01-30T00:22:30;99522.44;;;8.38;100.00
54936;BME280;40838;50.676;7.838;2024-01-30T00:24:59;99523.84;;;8.20;100.00
54936;BME280;40838;50.676;7.838;2024-01-30T00:27:26;99518.63;;;8.07;100.00
54936;BME280;40838;50.676;7.838;2024-01-30T00:29:54;99527.72;;;8.11;100.00
54936;BME280;40838;50.676;7.838;2024-01-30T00:32:21;99526.97;;;7.77;100.00
54936;BME280;40838;50.676;7.838;2024-01-30T00:34:48;99521.34;;;8.65;100.00
54936;BME280;40838;50.676;7.838;2024-01-30T00:37:16;99533.97;;;8.50;100.00
54936;BME280;40838;50.676;7.838;2024-01-30T00:39:43;99531.75;;;8.20;100.00
54936;BME280;40838;50.676;7.838;2024-01-30T00:42:11;99527.28;;;8.41;100.00
54936;BME280;40838;50.676;7.838;2024-01-30T00:44:38;99538.72;;;7.75;100.00
54936;BME280;40838;50.676;7.838;2024-01-30T00:47:05;99533.41;;;8.21;100.00
54936;BME280;40838;50.676;7.838;2024-01-30T00:49:33;99521.84;;;8.03;100.00
54936;BME280;40838;50.676;7.838;2024-01-30T00:52:00;99527.31;;;8.21;100.00
54936;BME280;40838;50.676;7.838;2024-01-30T00:54:28;99517.03;;;7.86;100.00
54936;BME280;40838;50.676;7.838;2024-01-30T00:56:55;99527.16;;;7.89;100.00
54936;BME280;40838;50.676;7.838;2024-01-30T00:59:24;99517.97;;;8.25;100.00
54936;BME280;40838;50.676;7.838;2024-01-30T01:01:51;99521.34;;;8.65;100.00
54936;BME280;40838;50.676;7.838;2024-01-30T01:04:18;99508.88;;;8.86;100.00
54936;BME280;40838;50.676;7.838;2024-01-30T01:06:46;99521.81;;;8.22;100.00
54936;BME280;40838;50.676;7.838;2024-01-30T01:09:13;99521.66;;;8.11;100.00
54936;BME280;40838;50.676;7.838;2024-01-30T01:11:41;99516.34;;;8.17;100.00
54936;BME280;40838;50.676;7.838;2024-01-30T01:14:08;99524.03;;;8.46;100.00
54936;BME280;40838;50.676;7.838;2024-01-30T01:16:36;99504.25;;;7.63;100.00
54936;BME280;40838;50.676;7.838;2024-01-30T01:19:03;99518.84;;;7.46;100.00
54936;BME280;40838;50.676;7.838;2024-01-30T01:21:30;99508.69;;;7.76;100.00
54936;BME280;40838;50.676;7.838;2024-01-30T01:23:57;99504.03;;;7.85;100.00
54936;BME280;40838;50.676;7.838;2024-01-30T01:26:24;99509.94;;;7.53;100.00
54936;BME280;40838;50.676;7.838;2024-01-30T01:28:51;99500.38;;;7.79;100.00
54936;BME280;40838;50.676;7.838;2024-01-30T01:31:18;99509.72;;;7.62;100.00
54936;BME280;40838;50.676;7.838;2024-01-30T01:33:49;99504.41;;;8.28;100.00
54936;BME280;40838;50.676;7.838;2024-01-30T01:36:16;99503.97;;;8.38;100.00
54936;BME280;40838;50.676;7.838;2024-01-30T01:38:43;99497.34;;;8.74;100.00
54936;BME280;40838;50.676;7.838;2024-01-30T01:41:10;99502.69;;;8.99;100.00
54936;BME280;40838;50.676;7.838;2024-01-30T01:43:37;99509.56;;;8.68;100.00
54936;BME280;40838;50.676;7.838;2024-01-30T01:46:05;99511.69;;;8.33;100.00
54936;BME280;40838;50.676;7.838;2024-01-30T01:48:33;99511.13;;;8.76;100.00
54936;BME280;40838;50.676;7.838;2024-01-30T01:51:02;99503.84;;;8.64;100.00
54936;BME280;40838;50.676;7.838;2024-01-30T01:53:29;99493.78;;;8.48;100.00
54936;BME280;40838;50.676;7.838;2024-01-30T01:55:56;99499.09;;;8.35;100.00
54936;BME280;40838;50.676;7.838;2024-01-30T01:58:25;99502.94;;;8.90;100.00
54936;BME280;40838;50.676;7.838;2024-01-30T02:00:54;99501.69;;;8.55;100.00
54936;BME280;40838;50.676;7.838;2024-01-30T02:03:22;99496.63;;;8.53;100.00
54936;BME280;40838;50.676;7.838;2024-01-30T02:05:50;99495.00;;;8.97;100.00
54936;BME280;40838;50.676;7.838;2024-01-30T02:08:20;99493.91;;;8.66;100.00
54936;BME280;40838;50.676;7.838;2024-01-30T02:10:47;99489.75;;;8.46;100.00
54936;BME280;40838;50.676;7.838;2024-01-30T02:13:14;99490.00;;;8.76;100.00
54936;BME280;40838;50.676;7.838;2024-01-30T02:15:41;99493.78;;;8.48;100.00
54936;BME280;40838;50.676;7.838;2024-01-30T02:18:08;99491.81;;;8.82;100.00
54936;BME280;40838;50.676;7.838;2024-01-30T02:20:37;99487.34;;;8.82;100.00
54936;BME280;40838;50.676;7.838;2024-01-30T02:23:07;99483.53;;;9.42;100.00
54936;BME280;40838;50.676;7.838;2024-01-30T02:25:39;99484.59;;;9.02;100.00
54936;BME280;40838;50.676;7.838;2024-01-30T02:28:09;99495.66;;;8.86;100.00
54936;BME280;40838;50.676;7.838;2024-01-30T02:30:37;99492.94;;;8.54;100.00
54936;BME280;40838;50.676;7.838;2024-01-30T02:33:05;99501.78;;;8.73;100.00
54936;BME280;40838;50.676;7.838;2024-01-30T02:35:32;99499.16;;;8.80;100.00
54936;BME280;40838;50.676;7.838;2024-01-30T02:37:59;99497.41;;;8.60;100.00
54936;BME280;40838;50.676;7.838;2024-01-30T02:40:28;99492.56;;;8.51;100.00
54936;BME280;40838;50.676;7.838;2024-01-30T02:42:55;99487.28;;;8.51;100.00
54936;BME280;40838;50.676;7.838;2024-01-30T02:45:23;99492.31;;;8.65;100.00
54936;BME280;40838;50.676;7.838;2024-01-30T02:47:50;99487.53;;;8.22;100.00
54936;BME280;40838;50.676;7.838;2024-01-30T02:50:17;99477.84;;;8.75;100.00
54936;BME280;40838;50.676;7.838;2024-01-30T02:52:44;99486.91;;;8.40;100.00
54936;BME280;40838;50.676;7.838;2024-01-30T02:55:11;99477.94;;;8.55;100.00
54936;BME280;40838;50.676;7.838;2024-01-30T02:57:40;99475.66;;;7.87;100.00
54936;BME280;40838;50.676;7.838;2024-01-30T03:00:07;99486.72;;;8.42;100.00
54936;BME280;40838;50.676;7.838;2024-01-30T03:02:35;99482.13;;;8.69;100.00
54936;BME280;40838;50.676;7.838;2024-01-30T03:05:02;99479.22;;;8.19;100.00
54936;BME280;40838;50.676;7.838;2024-01-30T03:07:30;99482.09;;;8.11;100.00
54936;BME280;40838;50.676;7.838;2024-01-30T03:09:57;99481.69;;;8.14;100.00
54936;BME280;40838;50.676;7.838;2024-01-30T03:12:24;99473.16;;;8.18;100.00
54936;BME280;40838;50.676;7.838;2024-01-30T03:14:53;99471.56;;;8.69;100.00
54936;BME280;40838;50.676;7.838;2024-01-30T03:17:20;99477.22;;;8.14;100.00
54936;BME280;40838;50.676;7.838;2024-01-30T03:19:47;99469.69;;;8.31;100.00
54936;BME280;40838;50.676;7.838;2024-01-30T03:22:14;99463.22;;;8.27;100.00
54936;BME280;40838;50.676;7.838;2024-01-30T03:24:41;99474.31;;;8.42;100.00
54936;BME280;40838;50.676;7.838;2024-01-30T03:27:08;99469.09;;;8.16;100.00
54936;BME280;40838;50.676;7.838;2024-01-30T03:29:35;99461.22;;;7.96;100.00
54936;BME280;40838;50.676;7.838;2024-01-30T03:32:05;99456.19;;;8.59;100.00
54936;BME280;40838;50.676;7.838;2024-01-30T03:34:32;99462.16;;;8.35;100.00
54936;BME280;40838;50.676;7.838;2024-01-30T03:36:59;99458.53;;;8.29;100.00
54936;BME280;40838;50.676;7.838;2024-01-30T03:39:26;99450.38;;;8.37;100.00
54936;BME280;40838;50.676;7.838;2024-01-30T03:41:53;99461.59;;;8.33;100.00
54936;BME280;40838;50.676;7.838;2024-01-30T03:44:20;99461.34;;;8.34;100.00
54936;BME280;40838;50.676;7.838;2024-01-30T03:46:47;99456.31;;;8.78;100.00
54936;BME280;40838;50.676;7.838;2024-01-30T03:49:16;99465.81;;;8.20;100.00
54936;BME280;40838;50.676;7.838;2024-01-30T03:51:43;99453.06;;;8.31;100.00
54936;BME280;40838;50.676;7.838;2024-01-30T03:54:10;99452.19;;;8.50;100.00
54936;BME280;40838;50.676;7.838;2024-01-30T03:56:37;99456.97;;;8.66;100.00
54936;BME280;40838;50.676;7.838;2024-01-30T03:59:04;99455.94;;;9.31;100.00
54936;BME280;40838;50.676;7.838;2024-01-30T04:01:31;99452.72;;;9.29;100.00
54936;BME280;40838;50.676;7.838;2024-01-30T04:03:58;99449.81;;;9.37;100.00
54936;BME280;40838;50.676;7.838;2024-01-30T04:06:26;99445.63;;;9.29;100.00
54936;BME280;40838;50.676;7.838;2024-01-30T04:08:53;99448.97;;;8.80;100.00
54936;BME280;40838;50.676;7.838;2024-01-30T04:11:20;99455.31;;;8.72;100.00
54936;BME280;40838;50.676;7.838;2024-01-30T04:13:47;99449.56;;;9.13;100.00
54936;BME280;40838;50.676;7.838;2024-01-30T04:16:19;99455.47;;;8.39;100.00
54936;BME280;40838;50.676;7.838;2024-01-30T04:18:47;99456.34;;;8.64;100.00
54936;BME280;40838;50.676;7.838;2024-01-30T04:21:14;99450.59;;;8.29;100.00
54936;BME280;40838;50.676;7.838;2024-01-30T04:23:43;99456.47;;;8.38;100.00
54936;BME280;40838;50.676;7.838;2024-01-30T04:26:10;99454.25;;;8.41;100.00
54936;BME280;40838;50.676;7.838;2024-01-30T04:28:37;99448.31;;;7.54;100.00
54936;BME280;40838;50.676;7.838;2024-01-30T04:31:04;99450.53;;;7.77;100.00
54936;BME280;40838;50.676;7.838;2024-01-30T04:33:31;99450.53;;;7.24;100.00
54936;BME280;40838;50.676;7.838;2024-01-30T04:35:58;99451.31;;;7.78;100.00
54936;BME280;40838;50.676;7.838;2024-01-30T04:38:25;99457.63;;;7.37;100.00
54936;BME280;40838;50.676;7.838;2024-01-30T04:40:54;99452.75;;;7.67;100.00
54936;BME280;40838;50.676;7.838;2024-01-30T04:43:21;99456.00;;;7.69;100.00
54936;BME280;40838;50.676;7.838;2024-01-30T04:45:49;99462.69;;;7.39;100.00
54936;BME280;40838;50.676;7.838;2024-01-30T04:48:16;99452.16;;;7.45;100.00
54936;BME280;40838;50.676;7.838;2024-01-30T04:50:43;99442.03;;;7.16;100.00
54936;BME280;40838;50.676;7.838;2024-01-30T04:53:10;99449.81;;;8.22;100.00
54936;BME280;40838;50.676;7.838;2024-01-30T04:55:37;99447.09;;;7.77;100.00
54936;BME280;40838;50.676;7.838;2024-01-30T04:58:05;99441.09;;;8.28;100.00
54936;BME280;40838;50.676;7.838;2024-01-30T05:00:33;99444.22;;;7.92;100.00
54936;BME280;40838;50.676;7.838;2024-01-30T05:03:03;99440.75;;;7.91;100.00
54936;BME280;40838;50.676;7.838;2024-01-30T05:05:30;99431.00;;;8.95;100.00
54936;BME280;40838;50.676;7.838;2024-01-30T05:07:57;99445.59;;;8.66;100.00
54936;BME280;40838;50.676;7.838;2024-01-30T05:10:24;99446.34;;;8.15;100.00
54936;BME280;40838;50.676;7.838;2024-01-30T05:12:51;99444.84;;;8.52;100.00
54936;BME280;40838;50.676;7.838;2024-01-30T05:15:20;99446.63;;;8.65;100.00
54936;BME280;40838;50.676;7.838;2024-01-30T05:17:47;99446.34;;;9.11;100.00
54936;BME280;40838;50.676;7.838;2024-01-30T05:20:14;99436.31;;;9.20;100.00
54936;BME280;40838;50.676;7.838;2024-01-30T05:22:42;99447.94;;;8.42;100.00
54936;BME280;40838;50.676;7.838;2024-01-30T05:25:10;99445.69;;;8.91;100.00
54936;BME280;40838;50.676;7.838;2024-01-30T05:27:38;99445.13;;;8.82;100.00
54936;BME280;40838;50.676;7.838;2024-01-30T05:30:06;99442.00;;;8.92;100.00
54936;BME280;40838;50.676;7.838;2024-01-30T05:32:35;99451.19;;;8.83;100.00
54936;BME280;40838;50.676;7.838;2024-01-30T05:35:03;99450.91;;;9.29;100.00
54936;BME280;40838;50.676;7.838;2024-01-30T05:37:31;99453.44;;;9.11;100.00
54936;BME280;40838;50.676;7.838;2024-01-30T05:39:58;99454.19;;;8.93;100.00
54936;BME280;40838;50.676;7.838;2024-01-30T05:42:25;99440.44;;;9.41;100.00
54936;BME280;40838;50.676;7.838;2024-01-30T05:44:52;99442.63;;;8.87;100.00
54936;BME280;40838;50.676;7.838;2024-01-30T05:47:20;99441.31;;;8.13;100.00
54936;BME280;40838;50.676;7.838;2024-01-30T05:49:49;99437.63;;;8.73;100.00
54936;BME280;40838;50.676;7.838;2024-01-30T05:52:16;99434.78;;;8.36;100.00
54936;BME280;40838;50.676;7.838;2024-01-30T05:54:44;99431.94;;;8.31;100.00
54936;BME280;40838;50.676;7.838;2024-01-30T05:57:11;99429.28;;;8.76;100.00
54936;BME280;40838;50.676;7.838;2024-01-30T05:59:38;99417.56;;;8.13;100.00
54936;BME280;40838;50.676;7.838;2024-01-30T06:02:06;99423.50;;;8.60;100.00
54936;BME280;40838;50.676;7.838;2024-01-30T06:04:33;99435.63;;;8.30;100.00
54936;BME280;40838;50.676;7.838;2024-01-30T06:07:01;99429.75;;;8.66;100.00
54936;BME280;40838;50.676;7.838;2024-01-30T06:09:28;99430.41;;;8.93;100.00
54936;BME280;40838;50.676;7.838;2024-01-30T06:11:56;99425.25;;;8.73;100.00
54936;BME280;40838;50.676;7.838;2024-01-30T06:14:23;99435.78;;;8.41;100.00
54936;BME280;40838;50.676;7.838;2024-01-30T06:16:50;99433.53;;;8.45;100.00
54936;BME280;40838;50.676;7.838;2024-01-30T06:19:18;99433.16;;;8.73;100.00
54936;BME280;40838;50.676;7.838;2024-01-30T06:21:45;99430.22;;;9.20;100.00
54936;BME280;40838;50.676;7.838;2024-01-30T06:24:13;99442.59;;;8.56;100.00
54936;BME280;40838;50.676;7.838;2024-01-30T06:26:40;99436.06;;;8.65;100.00
54936;BME280;40838;50.676;7.838;2024-01-30T06:29:07;99447.66;;;8.96;100.00
54936;BME280;40838;50.676;7.838;2024-01-30T06:31:39;99449.28;;;8.58;100.00
54936;BME280;40838;50.676;7.838;2024-01-30T06:34:07;99438.25;;;9.31;100.00
54936;BME280;40838;50.676;7.838;2024-01-30T06:36:34;99449.53;;;8.43;100.00
54936;BME280;40838;50.676;7.838;2024-01-30T06:39:01;99443.84;;;8.92;100.00
54936;BME280;40838;50.676;7.838;2024-01-30T06:41:30;99448.34;;;8.84;100.00
54936;BME280;40838;50.676;7.838;2024-01-30T06:43:57;99444.00;;;8.97;100.00
54936;BME280;40838;50.676;7.838;2024-01-30T06:46:24;99446.22;;;9.00;100.00
54936;BME280;40838;50.676;7.838;2024-01-30T06:48:51;99443.28;;;9.40;100.00
54936;BME280;40838;50.676;7.838;2024-01-30T06:51:18;99454.66;;;8.83;100.00
54936;BME280;40838;50.676;7.838;2024-01-30T06:53:46;99455.06;;;8.80;100.00
54936;BME280;40838;50.676;7.838;2024-01-30T06:56:13;99450.06;;;9.29;100.00
54936;BME280;40838;50.676;7.838;2024-01-30T06:58:41;99458.16;;;9.09;100.00
54936;BME280;40838;50.676;7.838;2024-01-30T07:01:08;99446.91;;;9.70;100.00
54936;BME280;40838;50.676;7.838;2024-01-30T07:03:36;99451.28;;;9.01;100.00
54936;BME280;40838;50.676;7.838;2024-01-30T07:06:03;99452.13;;;8.57;100.00
54936;BME280;40838;50.676;7.838;2024-01-30T07:08:30;99444.56;;;8.74;100.00
54936;BME280;40838;50.676;7.838;2024-01-30T07:10:57;99453.97;;;8.50;100.00
54936;BME280;40838;50.676;7.838;2024-01-30T07:13:25;99457.78;;;7.95;100.00
54936;BME280;40838;50.676;7.838;2024-01-30T07:15:53;99454.34;;;7.95;100.00
54936;BME280;40838;50.676;7.838;2024-01-30T07:18:20;99457.09;;;8.33;100.00
54936;BME280;40838;50.676;7.838;2024-01-30T07:20:48;99455.25;;;8.47;100.00
54936;BME280;40838;50.676;7.838;2024-01-30T07:23:15;99453.47;;;8.21;100.00
54936;BME280;40838;50.676;7.838;2024-01-30T07:25:43;99461.66;;;7.86;100.00
54936;BME280;40838;50.676;7.838;2024-01-30T07:28:10;99458.25;;;8.44;100.00
54936;BME280;40838;50.676;7.838;2024-01-30T07:30:37;99464.97;;;8.47;100.00
54936;BME280;40838;50.676;7.838;2024-01-30T07:33:06;99454.75;;;8.63;100.00
54936;BME280;40838;50.676;7.838;2024-01-30T07:35:34;99474.38;;;9.12;100.00
54936;BME280;40838;50.676;7.838;2024-01-30T07:38:01;99469.25;;;8.48;100.00
54936;BME280;40838;50.676;7.838;2024-01-30T07:40:28;99461.25;;;8.61;100.00
54936;BME280;40838;50.676;7.838;2024-01-30T07:42:55;99464.13;;;8.53;100.00
54936;BME280;40838;50.676;7.838;2024-01-30T07:45:22;99460.59;;;8.72;100.00
54936;BME280;40838;50.676;7.838;2024-01-30T07:47:51;99451.75;;;9.48;100.00
54936;BME280;40838;50.676;7.838;2024-01-30T07:50:19;99470.13;;;8.73;100.00
54936;BME280;40838;50.676;7.838;2024-01-30T07:52:46;99463.56;;;8.89;100.00
54936;BME280;40838;50.676;7.838;2024-01-30T07:55:16;99464.13;;;8.98;100.00
54936;BME280;40838;50.676;7.838;2024-01-30T07:57:45;99468.31;;;9.05;100.00
54936;BME280;40838;50.676;7.838;2024-01-30T08:00:13;99463.94;;;8.93;100.00
54936;BME280;40838;50.676;7.838;2024-01-30T08:02:40;99464.63;;;9.13;100.00
54936;BME280;40838;50.676;7.838;2024-01-30T08:05:07;99469.81;;;9.26;100.00
54936;BME280;40838;50.676;7.838;2024-01-30T08:07:38;99466.75;;;9.29;100.00
54936;BME280;40838;50.676;7.838;2024-01-30T08:10:07;99467.84;;;9.47;100.00
54936;BME280;40838;50.676;7.838;2024-01-30T08:12:34;99493.69;;;8.75;100.00
54936;BME280;40838;50.676;7.838;2024-01-30T08:15:05;99485.25;;;9.29;100.00
54936;BME280;40838;50.676;7.838;2024-01-30T08:17:32;99490.59;;;9.48;100.00
54936;BME280;40838;50.676;7.838;2024-01-30T08:19:59;99489.25;;;9.64;100.00
54936;BME280;40838;50.676;7.838;2024-01-30T08:22:26;99482.16;;;9.57;100.00
54936;BME280;40838;50.676;7.838;2024-01-30T08:24:55;99479.72;;;9.31;100.00
54936;BME280;40838;50.676;7.838;2024-01-30T08:27:22;99484.41;;;9.29;100.00
54936;BME280;40838;50.676;7.838;2024-01-30T08:29:49;99477.78;;;10.20;100.00
54936;BME280;40838;50.676;7.838;2024-01-30T08:32:16;99477.19;;;10.18;100.00
54936;BME280;40838;50.676;7.838;2024-01-30T08:34:43;99475.59;;;9.42;100.00
54936;BME280;40838;50.676;7.838;2024-01-30T08:37:10;99468.88;;;10.33;100.00
54936;BME280;40838;50.676;7.838;2024-01-30T08:39:37;99472.91;;;10.84;100.00
54936;BME280;40838;50.676;7.838;2024-01-30T08:42:06;99465.19;;;10.15;100.00
54936;BME280;40838;50.676;7.838;2024-01-30T08:44:33;99465.25;;;10.45;100.00
54936;BME280;40838;50.676;7.838;2024-01-30T08:47:00;99470.84;;;10.19;100.00
54936;BME280;40838;50.676;7.838;2024-01-30T08:49:28;99475.31;;;9.75;100.00
54936;BME280;40838;50.676;7.838;2024-01-30T08:51:56;99481.06;;;9.97;100.00
54936;BME280;40838;50.676;7.838;2024-01-30T08:54:23;99482.56;;;9.86;100.00
54936;BME280;40838;50.676;7.838;2024-01-30T08:56:50;99478.88;;;10.79;100.00
54936;BME280;40838;50.676;7.838;2024-01-30T08:59:20;99483.38;;;11.09;100.00
54936;BME280;40838;50.676;7.838;2024-01-30T09:01:47;99482.19;;;10.93;100.00
54936;BME280;40838;50.676;7.838;2024-01-30T09:04:14;99478.97;;;11.33;98.98
54936;BME280;40838;50.676;7.838;2024-01-30T09:06:41;99478.84;;;11.39;99.00
54936;BME280;40838;50.676;7.838;2024-01-30T09:09:08;99484.34;;;10.66;100.00
54936;BME280;40838;50.676;7.838;2024-01-30T09:11:36;99473.91;;;11.31;99.14
54936;BME280;40838;50.676;7.838;2024-01-30T09:14:03;99468.47;;;11.26;98.89
54936;BME280;40838;50.676;7.838;2024-01-30T09:16:31;99479.38;;;10.58;100.00
54936;BME280;40838;50.676;7.838;2024-01-30T09:18:58;99467.53;;;10.42;100.00
54936;BME280;40838;50.676;7.838;2024-01-30T09:21:25;99475.03;;;10.27;100.00
54936;BME280;40838;50.676;7.838;2024-01-30T09:23:54;99469.84;;;10.68;100.00
54936;BME280;40838;50.676;7.838;2024-01-30T09:26:21;99463.50;;;10.21;100.00
54936;BME280;40838;50.676;7.838;2024-01-30T09:28:48;99471.59;;;10.75;100.00
54936;BME280;40838;50.676;7.838;2024-01-30T09:31:15;99471.56;;;10.44;100.00
54936;BME280;40838;50.676;7.838;2024-01-30T09:33:44;99472.81;;;10.60;100.00
54936;BME280;40838;50.676;7.838;2024-01-30T09:36:13;99472.66;;;11.15;100.00
54936;BME280;40838;50.676;7.838;2024-01-30T09:38:44;99481.47;;;10.67;100.00
54936;BME280;40838;50.676;7.838;2024-01-30T09:41:11;99477.59;;;11.54;98.53
54936;BME280;40838;50.676;7.838;2024-01-30T09:43:39;99484.41;;;11.50;100.00
54936;BME280;40838;50.676;7.838;2024-01-30T09:46:10;99487.38;;;11.00;100.00
54936;BME280;40838;50.676;7.838;2024-01-30T09:48:40;99487.72;;;11.03;100.00
54936;BME280;40838;50.676;7.838;2024-01-30T09:51:09;99472.56;;;11.99;97.32
54936;BME280;40838;50.676;7.838;2024-01-30T09:53:38;99485.53;;;11.30;99.15
54936;BME280;40838;50.676;7.838;2024-01-30T09:56:06;99482.25;;;12.05;96.74
54936;BME280;40838;50.676;7.838;2024-01-30T09:58:33;99494.03;;;13.02;92.36
54936;BME280;40838;50.676;7.838;2024-01-30T10:01:00;99493.56;;;12.65;92.75
54936;BME280;40838;50.676;7.838;2024-01-30T10:03:28;99488.84;;;12.67;94.16
54936;BME280;40838;50.676;7.838;2024-01-30T10:05:55;99490.84;;;12.88;91.62
54936;BME280;40838;50.676;7.838;2024-01-30T10:08:26;99508.16;;;12.27;94.93
54936;BME280;40838;50.676;7.838;2024-01-30T10:10:55;99500.72;;;12.76;92.15
54936;BME280;40838;50.676;7.838;2024-01-30T10:13:22;99500.81;;;12.81;91.47
54936;BME280;40838;50.676;7.838;2024-01-30T10:15:49;99500.50;;;12.94;91.09
54936;BME280;40838;50.676;7.838;2024-01-30T10:18:18;99507.13;;;12.92;91.26
54936;BME280;40838;50.676;7.838;2024-01-30T10:20:45;99502.53;;;12.87;93.09
54936;BME280;40838;50.676;7.838;2024-01-30T10:23:13;99492.97;;;12.11;96.30
54936;BME280;40838;50.676;7.838;2024-01-30T10:25:42;99493.94;;;12.68;93.69
54936;BME280;40838;50.676;7.838;2024-01-30T10:28:09;99497.03;;;11.78;97.12
54936;BME280;40838;50.676;7.838;2024-01-30T10:30:36;99499.06;;;12.35;93.96
54936;BME280;40838;50.676;7.838;2024-01-30T10:33:03;99489.31;;;14.05;88.07
54936;BME280;40838;50.676;7.838;2024-01-30T10:35:31;99500.09;;;13.14;90.21
54936;BME280;40838;50.676;7.838;2024-01-30T10:37:59;99484.72;;;12.88;92.26
54936;BME280;40838;50.676;7.838;2024-01-30T10:40:28;99497.00;;;12.25;93.92
54936;BME280;40838;50.676;7.838;2024-01-30T10:42:56;99492.00;;;12.92;92.56
54936;BME280;40838;50.676;7.838;2024-01-30T10:45:28;99487.34;;;12.07;96.97
54936;BME280;40838;50.676;7.838;2024-01-30T10:47:59;99492.13;;;12.45;94.83
54936;BME280;40838;50.676;7.838;2024-01-30T10:50:26;99495.28;;;12.07;97.13
54936;BME280;40838;50.676;7.838;2024-01-30T10:52:54;99490.13;;;13.38;91.71
54936;BME280;40838;50.676;7.838;2024-01-30T10:55:21;99495.16;;;12.25;96.73
54936;BME280;40838;50.676;7.838;2024-01-30T10:57:48;99494.47;;;13.28;92.62
54936;BME280;40838;50.676;7.838;2024-01-30T11:00:18;99507.66;;;12.65;95.38
54936;BME280;40838;50.676;7.838;2024-01-30T11:02:49;99501.28;;;12.14;97.77
54936;BME280;40838;50.676;7.838;2024-01-30T11:05:23;99492.13;;;12.45;97.44
54936;BME280;40838;50.676;7.838;2024-01-30T11:07:51;99492.50;;;13.06;93.29
54936;BME280;40838;50.676;7.838;2024-01-30T11:10:18;99486.28;;;13.63;90.23
54936;BME280;40838;50.676;7.838;2024-01-30T11:12:46;99491.53;;;12.95;95.18
54936;BME280;40838;50.676;7.838;2024-01-30T11:15:14;99489.00;;;13.51;90.78
54936;BME280;40838;50.676;7.838;2024-01-30T11:17:50;99489.31;;;13.38;90.70
54936;BME280;40838;50.676;7.838;2024-01-30T11:20:20;99482.97;;;13.90;89.90
54936;BME280;40838;50.676;7.838;2024-01-30T11:22:51;99486.53;;;13.45;91.57
54936;BME280;40838;50.676;7.838;2024-01-30T11:25:20;99493.94;;;13.76;88.58
54936;BME280;40838;50.676;7.838;2024-01-30T11:27:50;99490.66;;;14.91;85.41
54936;BME280;40838;50.676;7.838;2024-01-30T11:30:21;99484.25;;;15.19;83.09
54936;BME280;40838;50.676;7.838;2024-01-30T11:33:00;99484.97;;;16.11;78.60
54936;BME280;40838;50.676;7.838;2024-01-30T11:35:27;99477.69;;;14.99;82.66
54936;BME280;40838;50.676;7.838;2024-01-30T11:37:54;99482.03;;;15.11;81.54
54936;BME280;40838;50.676;7.838;2024-01-30T11:40:24;99476.66;;;16.07;79.44
54936;BME280;40838;50.676;7.838;2024-01-30T11:42:54;99471.00;;;14.97;81.84
54936;BME280;40838;50.676;7.838;2024-01-30T11:45:22;99467.19;;;16.42;75.21
54936;BME280;40838;50.676;7.838;2024-01-30T11:47:49;99462.69;;;15.20;79.87
54936;BME280;40838;50.676;7.838;2024-01-30T11:50:18;99459.19;;;15.84;79.79
54936;BME280;40838;50.676;7.838;2024-01-30T11:52:45;99460.63;;;16.07;77.94
54936;BME280;40838;50.676;7.838;2024-01-30T11:55:12;99442.19;;;16.74;75.68
54936;BME280;40838;50.676;7.838;2024-01-30T11:57:40;99433.09;;;16.70;75.42
54936;BME280;40838;50.676;7.838;2024-01-30T12:00:14;99436.19;;;16.36;77.45
54936;BME280;40838;50.676;7.838;2024-01-30T12:02:42;99429.69;;;17.00;73.15
54936;BME280;40838;50.676;7.838;2024-01-30T12:05:09;99420.66;;;16.28;77.12
54936;BME280;40838;50.676;7.838;2024-01-30T12:07:37;99412.44;;;15.87;78.32
54936;BME280;40838;50.676;7.838;2024-01-30T12:10:05;99412.03;;;15.63;80.20
54936;BME280;40838;50.676;7.838;2024-01-30T12:12:33;99428.53;;;14.90;84.24
54936;BME280;40838;50.676;7.838;2024-01-30T12:15:01;99433.53;;;14.38;86.26
54936;BME280;40838;50.676;7.838;2024-01-30T12:17:30;99423.84;;;15.03;82.50
54936;BME280;40838;50.676;7.838;2024-01-30T12:20:07;99430.13;;;15.56;81.14
54936;BME280;40838;50.676;7.838;2024-01-30T12:22:38;99433.13;;;15.27;81.39
54936;BME280;40838;50.676;7.838;2024-01-30T12:25:07;99427.72;;;15.92;79.36
54936;BME280;40838;50.676;7.838;2024-01-30T12:27:35;99422.72;;;16.10;76.70
54936;BME280;40838;50.676;7.838;2024-01-30T12:30:05;99422.59;;;16.48;76.08
54936;BME280;40838;50.676;7.838;2024-01-30T12:32:34;99415.91;;;16.40;74.98
54936;BME280;40838;50.676;7.838;2024-01-30T12:35:01;99424.97;;;16.34;77.22
54936;BME280;40838;50.676;7.838;2024-01-30T12:37:29;99433.44;;;16.99;74.97
54936;BME280;40838;50.676;7.838;2024-01-30T12:39:58;99423.44;;;15.90;78.15
54936;BME280;40838;50.676;7.838;2024-01-30T12:42:27;99439.22;;;15.97;79.23
54936;BME280;40838;50.676;7.838;2024-01-30T12:44:54;99433.69;;;16.14;77.02
54936;BME280;40838;50.676;7.838;2024-01-30T12:47:22;99439.25;;;14.95;82.02
54936;BME280;40838;50.676;7.838;2024-01-30T12:49:49;99445.63;;;14.45;87.22
54936;BME280;40838;50.676;7.838;2024-01-30T12:52:19;99428.03;;;14.44;86.07
54936;BME280;40838;50.676;7.838;2024-01-30T12:54:47;99425.94;;;14.24;86.38
54936;BME280;40838;50.676;7.838;2024-01-30T12:57:15;99433.63;;;14.92;83.75
54936;BME280;40838;50.676;7.838;2024-01-30T12:59:43;99438.69;;;15.26;83.94
54936;BME280;40838;50.676;7.838;2024-01-30T13:02:11;99437.78;;;14.83;84.45